sensor_id;sensor_type;location;lat;lon;timestamp;P1;durP1;ratioP1;P2;durP2;ratioP2
8502;SDS011;4289;48.664;12.700;2024-03-22T00:01:49;0.10;;;0.10;;
8502;SDS011;4289;48.664;12.700;2024-03-22T00:05:12;0.10;;;0.10;;
8502;SDS011;4289;48.664;12.700;2024-03-22T00:08:36;0.00;;;0.00;;
8502;SDS011;4289;48.664;12.700;2024-03-22T00:11:58;0.10;;;0.10;;
8502;SDS011;4289;48.664;12.700;2024-03-22T00:15:20;0.10;;;0.10;;
8502;SDS011;4289;48.664;12.700;2024-03-22T00:18:42;0.10;;;0.10;;
8502;SDS011;4289;48.664;12.700;2024-03-22T00:22:05;0.10;;;0.10;;
8502;SDS011;4289;48.664;12.700;2024-03-22T00:25:27;0.10;;;0.10;;
8502;SDS011;4289;48.664;12.700;2024-03-22T00:28:50;0.10;;;0.10;;
8502;SDS011;4289;48.664;12.700;2024-03-22T00:32:11;0.00;;;0.00;;
8502;SDS011;4289;48.664;12.700;2024-03-22T00:35:33;0.10;;;0.10;;
8502;SDS011;4289;48.664;12.700;2024-03-22T00:38:56;0.10;;;0.10;;
8502;SDS011;4289;48.664;12.700;2024-03-22T00:42:18;0.10;;;0.10;;
8502;SDS011;4289;48.664;12.700;2024-03-22T00:45:40;0.10;;;0.10;;
8502;SDS011;4289;48.664;12.700;2024-03-22T00:49:02;0.10;;;0.10;;
8502;SDS011;4289;48.664;12.700;2024-03-22T00:52:24;0.10;;;0.10;;
8502;SDS011;4289;48.664;12.700;2024-03-22T00:55:48;0.10;;;0.10;;
8502;SDS011;4289;48.664;12.700;2024-03-22T00:59:11;0.10;;;0.10;;
8502;SDS011;4289;48.664;12.700;2024-03-22T01:02:33;0.10;;;0.10;;
8502;SDS011;4289;48.664;12.700;2024-03-22T01:05:54;0.10;;;0.10;;
8502;SDS011;4289;48.664;12.700;2024-03-22T01:09:17;0.10;;;0.10;;
8502;SDS011;4289;48.664;12.700;2024-03-22T01:12:41;0.10;;;0.10;;
8502;SDS011;4289;48.664;12.700;2024-03-22T01:16:03;0.10;;;0.10;;
8502;SDS011;4289;48.664;12.700;2024-03-22T01:19:28;0.10;;;0.10;;
8502;SDS011;4289;48.664;12.700;2024-03-22T01:22:50;0.10;;;0.10;;
8502;SDS011;4289;48.664;12.700;2024-03-22T01:26:13;0.10;;;0.10;;
8502;SDS011;4289;48.664;12.700;2024-03-22T01:29:36;0.00;;;0.00;;
8502;SDS011;4289;48.664;12.700;2024-03-22T01:32:58;0.10;;;0.10;;
8502;SDS011;4289;48.664;12.700;2024-03-22T01:36:20;0.10;;;0.10;;
8502;SDS011;4289;48.664;12.700;2024-03-22T01:39:41;0.10;;;0.10;;
8502;SDS011;4289;48.664;12.700;2024-03-22T01:43:04;0.10;;;0.10;;
8502;SDS011;4289;48.664;12.700;2024-03-22T01:46:27;0.10;;;0.10;;
8502;SDS011;4289;48.664;12.700;2024-03-22T01:49:49;0.10;;;0.10;;
8502;SDS011;4289;48.664;12.700;2024-03-22T01:53:12;0.10;;;0.10;;
8502;SDS011;4289;48.664;12.700;2024-03-22T01:56:35;0.10;;;0.10;;
8502;SDS011;4289;48.664;12.700;2024-03-22T01:59:57;0.00;;;0.00;;
8502;SDS011;4289;48.664;12.700;2024-03-22T02:03:22;0.10;;;0.10;;
8502;SDS011;4289;48.664;12.700;2024-03-22T02:06:44;0.10;;;0.10;;
8502;SDS011;4289;48.664;12.700;2024-03-22T02:10:07;0.10;;;0.10;;
8502;SDS011;4289;48.664;12.700;2024-03-22T02:13:30;0.10;;;0.10;;
8502;SDS011;4289;48.664;12.700;2024-03-22T02:16:52;0.10;;;0.10;;
8502;SDS011;4289;48.664;12.700;2024-03-22T02:20:15;0.10;;;0.10;;
8502;SDS011;4289;48.664;12.700;2024-03-22T02:23:40;0.10;;;0.10;;
8502;SDS011;4289;48.664;12.700;2024-03-22T02:27:02;0.10;;;0.10;;
8502;SDS011;4289;48.664;12.700;2024-03-22T02:30:25;0.10;;;0.10;;
8502;SDS011;4289;48.664;12.700;2024-03-22T02:33:47;0.10;;;0.10;;
8502;SDS011;4289;48.664;12.700;2024-03-22T02:37:09;0.10;;;0.10;;
8502;SDS011;4289;48.664;12.700;2024-03-22T02:40:32;0.10;;;0.10;;
8502;SDS011;4289;48.664;12.700;2024-03-22T02:43:54;0.10;;;0.10;;
8502;SDS011;4289;48.664;12.700;2024-03-22T02:47:16;0.00;;;0.00;;
8502;SDS011;4289;48.664;12.700;2024-03-22T02:50:37;0.10;;;0.10;;
8502;SDS011;4289;48.664;12.700;2024-03-22T02:54:00;0.10;;;0.10;;
8502;SDS011;4289;48.664;12.700;2024-03-22T02:57:23;0.00;;;0.00;;
8502;SDS011;4289;48.664;12.700;2024-03-22T03:00:45;0.10;;;0.10;;
8502;SDS011;4289;48.664;12.700;2024-03-22T03:04:07;0.10;;;0.10;;
8502;SDS011;4289;48.664;12.700;2024-03-22T03:07:30;0.10;;;0.10;;
8502;SDS011;4289;48.664;12.700;2024-03-22T03:10:51;0.10;;;0.10;;
8502;SDS011;4289;48.664;12.700;2024-03-22T03:14:15;0.10;;;0.10;;
8502;SDS011;4289;48.664;12.700;2024-03-22T03:17:37;0.10;;;0.10;;
8502;SDS011;4289;48.664;12.700;2024-03-22T03:21:04;0.10;;;0.10;;
8502;SDS011;4289;48.664;12.700;2024-03-22T03:25:03;0.10;;;0.10;;
8502;SDS011;4289;48.664;12.700;2024-03-22T03:28:25;0.10;;;0.10;;
8502;SDS011;4289;48.664;12.700;2024-03-22T03:31:49;0.10;;;0.10;;
8502;SDS011;4289;48.664;12.700;2024-03-22T03:35:10;0.10;;;0.10;;
8502;SDS011;4289;48.664;12.700;2024-03-22T03:38:33;0.10;;;0.10;;
8502;SDS011;4289;48.664;12.700;2024-03-22T03:41:57;0.10;;;0.10;;
8502;SDS011;4289;48.664;12.700;2024-03-22T03:45:20;0.10;;;0.10;;
8502;SDS011;4289;48.664;12.700;2024-03-22T03:48:44;0.00;;;0.00;;
8502;SDS011;4289;48.664;12.700;2024-03-22T03:52:05;0.10;;;0.10;;
8502;SDS011;4289;48.664;12.700;2024-03-22T03:55:28;0.10;;;0.10;;
8502;SDS011;4289;48.664;12.700;2024-03-22T03:58:49;0.10;;;0.10;;
8502;SDS011;4289;48.664;12.700;2024-03-22T04:02:13;0.10;;;0.10;;
8502;SDS011;4289;48.664;12.700;2024-03-22T04:05:36;0.10;;;0.10;;
8502;SDS011;4289;48.664;12.700;2024-03-22T04:08:58;0.10;;;0.10;;
8502;SDS011;4289;48.664;12.700;2024-03-22T04:12:23;0.10;;;0.10;;
8502;SDS011;4289;48.664;12.700;2024-03-22T04:15:47;0.10;;;0.10;;
8502;SDS011;4289;48.664;12.700;2024-03-22T04:19:08;0.10;;;0.10;;
8502;SDS011;4289;48.664;12.700;2024-03-22T04:22:32;0.10;;;0.10;;
8502;SDS011;4289;48.664;12.700;2024-03-22T04:25:54;0.10;;;0.10;;
8502;SDS011;4289;48.664;12.700;2024-03-22T04:29:16;0.10;;;0.10;;
8502;SDS011;4289;48.664;12.700;2024-03-22T04:32:39;0.10;;;0.10;;
8502;SDS011;4289;48.664;12.700;2024-03-22T04:36:01;0.10;;;0.10;;
8502;SDS011;4289;48.664;12.700;2024-03-22T04:39:26;0.10;;;0.10;;
8502;SDS011;4289;48.664;12.700;2024-03-22T04:42:48;0.10;;;0.10;;
8502;SDS011;4289;48.664;12.700;2024-03-22T04:46:10;0.10;;;0.10;;
8502;SDS011;4289;48.664;12.700;2024-03-22T04:49:33;0.10;;;0.10;;
8502;SDS011;4289;48.664;12.700;2024-03-22T04:52:54;0.10;;;0.10;;
8502;SDS011;4289;48.664;12.700;2024-03-22T04:56:19;0.20;;;0.20;;
8502;SDS011;4289;48.664;12.700;2024-03-22T04:59:41;0.30;;;0.30;;
8502;SDS011;4289;48.664;12.700;2024-03-22T05:03:04;0.63;;;0.63;;
8502;SDS011;4289;48.664;12.700;2024-03-22T05:06:28;1.10;;;1.10;;
8502;SDS011;4289;48.664;12.700;2024-03-22T05:09:58;1.53;;;1.43;;
8502;SDS011;4289;48.664;12.700;2024-03-22T05:13:21;1.30;;;1.30;;
8502;SDS011;4289;48.664;12.700;2024-03-22T05:16:43;1.03;;;1.03;;
8502;SDS011;4289;48.664;12.700;2024-03-22T05:20:06;0.90;;;0.90;;
8502;SDS011;4289;48.664;12.700;2024-03-22T05:23:30;0.70;;;0.70;;
8502;SDS011;4289;48.664;12.700;2024-03-22T05:26:53;0.50;;;0.50;;
8502;SDS011;4289;48.664;12.700;2024-03-22T05:30:16;0.70;;;0.70;;
8502;SDS011;4289;48.664;12.700;2024-03-22T05:33:38;0.63;;;0.63;;
8502;SDS011;4289;48.664;12.700;2024-03-22T05:37:00;0.70;;;0.70;;
8502;SDS011;4289;48.664;12.700;2024-03-22T05:40:22;0.50;;;0.50;;
8502;SDS011;4289;48.664;12.700;2024-03-22T05:43:44;0.50;;;0.50;;
8502;SDS011;4289;48.664;12.700;2024-03-22T05:47:07;0.60;;;0.60;;
8502;SDS011;4289;48.664;12.700;2024-03-22T05:50:29;0.50;;;0.50;;
8502;SDS011;4289;48.664;12.700;2024-03-22T05:53:52;0.40;;;0.40;;
8502;SDS011;4289;48.664;12.700;2024-03-22T05:57:14;0.20;;;0.20;;
8502;SDS011;4289;48.664;12.700;2024-03-22T06:00:37;0.50;;;0.50;;
8502;SDS011;4289;48.664;12.700;2024-03-22T06:04:02;0.30;;;0.30;;
8502;SDS011;4289;48.664;12.700;2024-03-22T06:07:24;0.30;;;0.30;;
8502;SDS011;4289;48.664;12.700;2024-03-22T06:10:47;0.20;;;0.20;;
8502;SDS011;4289;48.664;12.700;2024-03-22T06:14:08;0.10;;;0.10;;
8502;SDS011;4289;48.664;12.700;2024-03-22T06:17:31;0.10;;;0.10;;
8502;SDS011;4289;48.664;12.700;2024-03-22T06:21:06;0.10;;;0.10;;
8502;SDS011;4289;48.664;12.700;2024-03-22T06:24:28;0.10;;;0.10;;
8502;SDS011;4289;48.664;12.700;2024-03-22T06:27:50;0.10;;;0.10;;
8502;SDS011;4289;48.664;12.700;2024-03-22T06:31:12;0.10;;;0.10;;
8502;SDS011;4289;48.664;12.700;2024-03-22T06:34:34;0.10;;;0.10;;
8502;SDS011;4289;48.664;12.700;2024-03-22T06:37:58;0.10;;;0.10;;
8502;SDS011;4289;48.664;12.700;2024-03-22T06:41:22;0.10;;;0.10;;
8502;SDS011;4289;48.664;12.700;2024-03-22T06:44:46;0.10;;;0.10;;
8502;SDS011;4289;48.664;12.700;2024-03-22T06:48:08;0.10;;;0.10;;
8502;SDS011;4289;48.664;12.700;2024-03-22T06:51:29;0.03;;;0.03;;
8502;SDS011;4289;48.664;12.700;2024-03-22T06:54:53;0.10;;;0.10;;
8502;SDS011;4289;48.664;12.700;2024-03-22T06:58:15;0.10;;;0.10;;
8502;SDS011;4289;48.664;12.700;2024-03-22T07:01:37;0.10;;;0.10;;
8502;SDS011;4289;48.664;12.700;2024-03-22T07:04:59;0.10;;;0.10;;
8502;SDS011;4289;48.664;12.700;2024-03-22T07:08:21;0.10;;;0.10;;
8502;SDS011;4289;48.664;12.700;2024-03-22T07:11:44;0.10;;;0.10;;
8502;SDS011;4289;48.664;12.700;2024-03-22T07:15:07;0.10;;;0.10;;
8502;SDS011;4289;48.664;12.700;2024-03-22T07:18:30;0.10;;;0.10;;
8502;SDS011;4289;48.664;12.700;2024-03-22T07:21:52;0.10;;;0.10;;
8502;SDS011;4289;48.664;12.700;2024-03-22T07:25:13;0.10;;;0.10;;
8502;SDS011;4289;48.664;12.700;2024-03-22T07:28:37;0.10;;;0.10;;
8502;SDS011;4289;48.664;12.700;2024-03-22T07:31:59;0.10;;;0.10;;
8502;SDS011;4289;48.664;12.700;2024-03-22T07:35:23;0.10;;;0.10;;
8502;SDS011;4289;48.664;12.700;2024-03-22T07:38:45;0.10;;;0.10;;
8502;SDS011;4289;48.664;12.700;2024-03-22T07:42:08;0.10;;;0.10;;
8502;SDS011;4289;48.664;12.700;2024-03-22T07:45:32;0.00;;;0.00;;
8502;SDS011;4289;48.664;12.700;2024-03-22T07:48:55;0.10;;;0.10;;
8502;SDS011;4289;48.664;12.700;2024-03-22T07:52:17;0.10;;;0.10;;
8502;SDS011;4289;48.664;12.700;2024-03-22T07:55:39;0.10;;;0.10;;
8502;SDS011;4289;48.664;12.700;2024-03-22T07:59:01;0.10;;;0.10;;
8502;SDS011;4289;48.664;12.700;2024-03-22T08:02:25;0.10;;;0.10;;
8502;SDS011;4289;48.664;12.700;2024-03-22T08:05:47;0.10;;;0.10;;
8502;SDS011;4289;48.664;12.700;2024-03-22T08:09:09;0.10;;;0.10;;
8502;SDS011;4289;48.664;12.700;2024-03-22T08:12:31;0.10;;;0.10;;
8502;SDS011;4289;48.664;12.700;2024-03-22T08:15:53;0.00;;;0.00;;
8502;SDS011;4289;48.664;12.700;2024-03-22T08:19:16;0.10;;;0.10;;
8502;SDS011;4289;48.664;12.700;2024-03-22T08:22:38;0.10;;;0.10;;
8502;SDS011;4289;48.664;12.700;2024-03-22T08:26:00;0.10;;;0.10;;
8502;SDS011;4289;48.664;12.700;2024-03-22T08:29:22;0.10;;;0.10;;
8502;SDS011;4289;48.664;12.700;2024-03-22T08:32:45;0.10;;;0.10;;
8502;SDS011;4289;48.664;12.700;2024-03-22T08:36:09;0.10;;;0.10;;
8502;SDS011;4289;48.664;12.700;2024-03-22T08:39:32;0.00;;;0.00;;
8502;SDS011;4289;48.664;12.700;2024-03-22T08:42:54;0.00;;;0.00;;
8502;SDS011;4289;48.664;12.700;2024-03-22T08:46:16;0.00;;;0.00;;
8502;SDS011;4289;48.664;12.700;2024-03-22T08:49:37;0.10;;;0.10;;
8502;SDS011;4289;48.664;12.700;2024-03-22T08:53:03;0.10;;;0.10;;
8502;SDS011;4289;48.664;12.700;2024-03-22T08:56:27;0.00;;;0.00;;
8502;SDS011;4289;48.664;12.700;2024-03-22T08:59:49;0.10;;;0.10;;
8502;SDS011;4289;48.664;12.700;2024-03-22T09:03:11;0.00;;;0.00;;
8502;SDS011;4289;48.664;12.700;2024-03-22T09:06:34;0.10;;;0.10;;
8502;SDS011;4289;48.664;12.700;2024-03-22T09:09:58;0.10;;;0.10;;
8502;SDS011;4289;48.664;12.700;2024-03-22T09:13:21;0.00;;;0.00;;
8502;SDS011;4289;48.664;12.700;2024-03-22T09:16:43;0.00;;;0.00;;
8502;SDS011;4289;48.664;12.700;2024-03-22T09:20:06;0.10;;;0.10;;
8502;SDS011;4289;48.664;12.700;2024-03-22T09:23:28;0.00;;;0.00;;
8502;SDS011;4289;48.664;12.700;2024-03-22T09:26:52;0.10;;;0.10;;
8502;SDS011;4289;48.664;12.700;2024-03-22T09:30:14;0.10;;;0.10;;
8502;SDS011;4289;48.664;12.700;2024-03-22T09:33:36;0.10;;;0.10;;
8502;SDS011;4289;48.664;12.700;2024-03-22T09:36:58;0.10;;;0.10;;
8502;SDS011;4289;48.664;12.700;2024-03-22T09:40:21;0.00;;;0.00;;
8502;SDS011;4289;48.664;12.700;2024-03-22T09:43:43;0.10;;;0.10;;
8502;SDS011;4289;48.664;12.700;2024-03-22T09:47:08;0.10;;;0.10;;
8502;SDS011;4289;48.664;12.700;2024-03-22T09:50:34;0.10;;;0.10;;
8502;SDS011;4289;48.664;12.700;2024-03-22T09:53:57;0.10;;;0.10;;
8502;SDS011;4289;48.664;12.700;2024-03-22T09:57:18;0.00;;;0.00;;
8502;SDS011;4289;48.664;12.700;2024-03-22T10:00:43;0.10;;;0.10;;
8502;SDS011;4289;48.664;12.700;2024-03-22T10:04:05;0.10;;;0.10;;
8502;SDS011;4289;48.664;12.700;2024-03-22T10:07:27;0.10;;;0.10;;
8502;SDS011;4289;48.664;12.700;2024-03-22T10:10:48;0.00;;;0.00;;
8502;SDS011;4289;48.664;12.700;2024-03-22T10:14:11;0.10;;;0.10;;
8502;SDS011;4289;48.664;12.700;2024-03-22T10:17:35;0.10;;;0.10;;
8502;SDS011;4289;48.664;12.700;2024-03-22T10:21:00;0.00;;;0.00;;
8502;SDS011;4289;48.664;12.700;2024-03-22T10:24:23;0.00;;;0.00;;
8502;SDS011;4289;48.664;12.700;2024-03-22T10:27:44;0.10;;;0.10;;
8502;SDS011;4289;48.664;12.700;2024-03-22T10:31:08;0.10;;;0.10;;
8502;SDS011;4289;48.664;12.700;2024-03-22T10:34:31;0.00;;;0.00;;
8502;SDS011;4289;48.664;12.700;2024-03-22T10:37:53;0.00;;;0.00;;
8502;SDS011;4289;48.664;12.700;2024-03-22T10:41:16;0.00;;;0.00;;
8502;SDS011;4289;48.664;12.700;2024-03-22T10:44:37;0.10;;;0.10;;
8502;SDS011;4289;48.664;12.700;2024-03-22T10:47:59;0.00;;;0.00;;
8502;SDS011;4289;48.664;12.700;2024-03-22T10:51:25;0.10;;;0.10;;
8502;SDS011;4289;48.664;12.700;2024-03-22T10:54:48;0.10;;;0.10;;
8502;SDS011;4289;48.664;12.700;2024-03-22T10:58:24;0.00;;;0.00;;
8502;SDS011;4289;48.664;12.700;2024-03-22T11:01:47;0.00;;;0.00;;
8502;SDS011;4289;48.664;12.700;2024-03-22T11:05:15;0.00;;;0.00;;
8502;SDS011;4289;48.664;12.700;2024-03-22T11:08:39;0.00;;;0.00;;
8502;SDS011;4289;48.664;12.700;2024-03-22T11:12:03;0.10;;;0.10;;
8502;SDS011;4289;48.664;12.700;2024-03-22T11:15:26;0.00;;;0.00;;
8502;SDS011;4289;48.664;12.700;2024-03-22T11:18:49;0.10;;;0.10;;
8502;SDS011;4289;48.664;12.700;2024-03-22T11:22:12;0.05;;;0.05;;
8502;SDS011;4289;48.664;12.700;2024-03-22T11:25:35;0.10;;;0.10;;
8502;SDS011;4289;48.664;12.700;2024-03-22T11:28:58;0.10;;;0.10;;
8502;SDS011;4289;48.664;12.700;2024-03-22T11:32:21;0.00;;;0.00;;
8502;SDS011;4289;48.664;12.700;2024-03-22T11:35:44;0.00;;;0.00;;
8502;SDS011;4289;48.664;12.700;2024-03-22T11:39:06;0.00;;;0.00;;
8502;SDS011;4289;48.664;12.700;2024-03-22T11:42:30;0.10;;;0.10;;
8502;SDS011;4289;48.664;12.700;2024-03-22T11:45:53;0.03;;;0.03;;
8502;SDS011;4289;48.664;12.700;2024-03-22T11:49:15;0.00;;;0.00;;
8502;SDS011;4289;48.664;12.700;2024-03-22T11:52:40;0.10;;;0.10;;
8502;SDS011;4289;48.664;12.700;2024-03-22T11:56:03;0.10;;;0.10;;
8502;SDS011;4289;48.664;12.700;2024-03-22T11:59:26;0.00;;;0.00;;
8502;SDS011;4289;48.664;12.700;2024-03-22T12:02:50;0.10;;;0.10;;
8502;SDS011;4289;48.664;12.700;2024-03-22T12:06:14;0.00;;;0.00;;
8502;SDS011;4289;48.664;12.700;2024-03-22T12:09:36;0.00;;;0.00;;
8502;SDS011;4289;48.664;12.700;2024-03-22T12:12:59;0.00;;;0.00;;
8502;SDS011;4289;48.664;12.700;2024-03-22T12:16:23;0.00;;;0.00;;
8502;SDS011;4289;48.664;12.700;2024-03-22T12:19:45;0.00;;;0.00;;
8502;SDS011;4289;48.664;12.700;2024-03-22T12:23:07;0.10;;;0.10;;
8502;SDS011;4289;48.664;12.700;2024-03-22T12:26:29;0.10;;;0.10;;
8502;SDS011;4289;48.664;12.700;2024-03-22T12:29:52;0.00;;;0.00;;
8502;SDS011;4289;48.664;12.700;2024-03-22T12:33:16;0.10;;;0.10;;
8502;SDS011;4289;48.664;12.700;2024-03-22T12:36:40;0.00;;;0.00;;
8502;SDS011;4289;48.664;12.700;2024-03-22T12:40:03;0.10;;;0.10;;
8502;SDS011;4289;48.664;12.700;2024-03-22T12:43:28;0.00;;;0.00;;
8502;SDS011;4289;48.664;12.700;2024-03-22T12:46:51;0.00;;;0.00;;
8502;SDS011;4289;48.664;12.700;2024-03-22T12:50:17;0.00;;;0.00;;
8502;SDS011;4289;48.664;12.700;2024-03-22T12:53:40;0.10;;;0.10;;
8502;SDS011;4289;48.664;12.700;2024-03-22T12:57:02;0.00;;;0.00;;
8502;SDS011;4289;48.664;12.700;2024-03-22T13:00:24;0.10;;;0.10;;
8502;SDS011;4289;48.664;12.700;2024-03-22T13:03:47;0.00;;;0.00;;
8502;SDS011;4289;48.664;12.700;2024-03-22T13:07:14;0.00;;;0.00;;
8502;SDS011;4289;48.664;12.700;2024-03-22T13:10:39;0.00;;;0.00;;
8502;SDS011;4289;48.664;12.700;2024-03-22T13:14:04;0.00;;;0.00;;
8502;SDS011;4289;48.664;12.700;2024-03-22T13:17:27;0.00;;;0.00;;
8502;SDS011;4289;48.664;12.700;2024-03-22T13:20:49;0.10;;;0.10;;
8502;SDS011;4289;48.664;12.700;2024-03-22T13:24:13;0.10;;;0.10;;
8502;SDS011;4289;48.664;12.700;2024-03-22T13:27:35;0.10;;;0.10;;
8502;SDS011;4289;48.664;12.700;2024-03-22T13:31:00;0.10;;;0.10;;
8502;SDS011;4289;48.664;12.700;2024-03-22T13:34:23;0.05;;;0.05;;
8502;SDS011;4289;48.664;12.700;2024-03-22T13:37:46;0.10;;;0.10;;
8502;SDS011;4289;48.664;12.700;2024-03-22T13:41:09;0.03;;;0.03;;
8502;SDS011;4289;48.664;12.700;2024-03-22T13:44:32;0.08;;;0.08;;
8502;SDS011;4289;48.664;12.700;2024-03-22T13:47:53;0.05;;;0.05;;
8502;SDS011;4289;48.664;12.700;2024-03-22T13:51:15;0.00;;;0.00;;
8502;SDS011;4289;48.664;12.700;2024-03-22T13:54:37;0.00;;;0.00;;
8502;SDS011;4289;48.664;12.700;2024-03-22T13:58:02;0.10;;;0.10;;
8502;SDS011;4289;48.664;12.700;2024-03-22T14:01:24;0.10;;;0.10;;
8502;SDS011;4289;48.664;12.700;2024-03-22T14:04:47;0.00;;;0.00;;
8502;SDS011;4289;48.664;12.700;2024-03-22T14:08:10;0.03;;;0.03;;
8502;SDS011;4289;48.664;12.700;2024-03-22T14:11:33;0.00;;;0.00;;
8502;SDS011;4289;48.664;12.700;2024-03-22T14:14:57;0.10;;;0.10;;
8502;SDS011;4289;48.664;12.700;2024-03-22T14:18:19;0.00;;;0.00;;
8502;SDS011;4289;48.664;12.700;2024-03-22T14:21:41;0.00;;;0.00;;
8502;SDS011;4289;48.664;12.700;2024-03-22T14:25:04;0.00;;;0.00;;
8502;SDS011;4289;48.664;12.700;2024-03-22T14:28:27;0.00;;;0.00;;
8502;SDS011;4289;48.664;12.700;2024-03-22T14:31:50;0.00;;;0.00;;
8502;SDS011;4289;48.664;12.700;2024-03-22T14:35:12;0.10;;;0.10;;
8502;SDS011;4289;48.664;12.700;2024-03-22T14:38:35;0.10;;;0.10;;
8502;SDS011;4289;48.664;12.700;2024-03-22T14:41:56;0.10;;;0.10;;
8502;SDS011;4289;48.664;12.700;2024-03-22T14:45:19;0.03;;;0.03;;
8502;SDS011;4289;48.664;12.700;2024-03-22T14:48:43;0.10;;;0.10;;
8502;SDS011;4289;48.664;12.700;2024-03-22T14:52:05;0.00;;;0.00;;
8502;SDS011;4289;48.664;12.700;2024-03-22T14:55:27;0.00;;;0.00;;
8502;SDS011;4289;48.664;12.700;2024-03-22T14:58:50;0.00;;;0.00;;
8502;SDS011;4289;48.664;12.700;2024-03-22T15:02:12;0.00;;;0.00;;
8502;SDS011;4289;48.664;12.700;2024-03-22T15:05:38;0.00;;;0.00;;
8502;SDS011;4289;48.664;12.700;2024-03-22T15:08:59;0.00;;;0.00;;
8502;SDS011;4289;48.664;12.700;2024-03-22T15:12:29;0.00;;;0.00;;
8502;SDS011;4289;48.664;12.700;2024-03-22T15:15:51;0.00;;;0.00;;
8502;SDS011;4289;48.664;12.700;2024-03-22T15:19:13;0.10;;;0.10;;
8502;SDS011;4289;48.664;12.700;2024-03-22T15:22:38;0.10;;;0.10;;
8502;SDS011;4289;48.664;12.700;2024-03-22T15:26:00;0.10;;;0.10;;
8502;SDS011;4289;48.664;12.700;2024-03-22T15:29:22;0.00;;;0.00;;
8502;SDS011;4289;48.664;12.700;2024-03-22T15:32:44;0.00;;;0.00;;
8502;SDS011;4289;48.664;12.700;2024-03-22T15:36:06;0.10;;;0.10;;
8502;SDS011;4289;48.664;12.700;2024-03-22T15:39:29;0.00;;;0.00;;
8502;SDS011;4289;48.664;12.700;2024-03-22T15:42:51;0.00;;;0.00;;
8502;SDS011;4289;48.664;12.700;2024-03-22T15:46:13;0.00;;;0.00;;
8502;SDS011;4289;48.664;12.700;2024-03-22T15:49:36;0.00;;;0.00;;
8502;SDS011;4289;48.664;12.700;2024-03-22T15:52:57;0.10;;;0.10;;
8502;SDS011;4289;48.664;12.700;2024-03-22T15:56:21;0.00;;;0.00;;
8502;SDS011;4289;48.664;12.700;2024-03-22T15:59:44;0.00;;;0.00;;
8502;SDS011;4289;48.664;12.700;2024-03-22T16:03:06;0.00;;;0.00;;
8502;SDS011;4289;48.664;12.700;2024-03-22T16:06:28;0.00;;;0.00;;
8502;SDS011;4289;48.664;12.700;2024-03-22T16:09:51;0.00;;;0.00;;
8502;SDS011;4289;48.664;12.700;2024-03-22T16:13:14;0.00;;;0.00;;
8502;SDS011;4289;48.664;12.700;2024-03-22T16:16:37;0.00;;;0.00;;
8502;SDS011;4289;48.664;12.700;2024-03-22T16:19:59;0.00;;;0.00;;
8502;SDS011;4289;48.664;12.700;2024-03-22T16:23:20;0.00;;;0.00;;
8502;SDS011;4289;48.664;12.700;2024-03-22T16:26:43;0.05;;;0.05;;
8502;SDS011;4289;48.664;12.700;2024-03-22T16:30:08;0.00;;;0.00;;
8502;SDS011;4289;48.664;12.700;2024-03-22T16:33:31;0.10;;;0.10;;
8502;SDS011;4289;48.664;12.700;2024-03-22T16:36:53;0.08;;;0.08;;
8502;SDS011;4289;48.664;12.700;2024-03-22T16:40:16;0.00;;;0.00;;
8502;SDS011;4289;48.664;12.700;2024-03-22T16:43:40;0.00;;;0.00;;
8502;SDS011;4289;48.664;12.700;2024-03-22T16:47:03;0.00;;;0.00;;
8502;SDS011;4289;48.664;12.700;2024-03-22T16:50:27;0.00;;;0.00;;
8502;SDS011;4289;48.664;12.700;2024-03-22T16:53:49;0.00;;;0.00;;
8502;SDS011;4289;48.664;12.700;2024-03-22T16:57:11;0.00;;;0.00;;
8502;SDS011;4289;48.664;12.700;2024-03-22T17:00:33;0.00;;;0.00;;
8502;SDS011;4289;48.664;12.700;2024-03-22T17:03:56;0.00;;;0.00;;
8502;SDS011;4289;48.664;12.700;2024-03-22T17:07:19;0.00;;;0.00;;
8502;SDS011;4289;48.664;12.700;2024-03-22T17:10:45;0.00;;;0.00;;
8502;SDS011;4289;48.664;12.700;2024-03-22T17:14:07;0.00;;;0.00;;
8502;SDS011;4289;48.664;12.700;2024-03-22T17:17:29;0.08;;;0.08;;
8502;SDS011;4289;48.664;12.700;2024-03-22T17:20:52;0.00;;;0.00;;
8502;SDS011;4289;48.664;12.700;2024-03-22T17:24:14;0.00;;;0.00;;
8502;SDS011;4289;48.664;12.700;2024-03-22T17:27:36;0.00;;;0.00;;
8502;SDS011;4289;48.664;12.700;2024-03-22T17:30:58;0.00;;;0.00;;
8502;SDS011;4289;48.664;12.700;2024-03-22T17:34:20;0.00;;;0.00;;
8502;SDS011;4289;48.664;12.700;2024-03-22T17:37:43;0.00;;;0.00;;
8502;SDS011;4289;48.664;12.700;2024-03-22T17:41:06;0.05;;;0.05;;
8502;SDS011;4289;48.664;12.700;2024-03-22T17:44:27;0.00;;;0.00;;
8502;SDS011;4289;48.664;12.700;2024-03-22T17:47:50;0.00;;;0.00;;
8502;SDS011;4289;48.664;12.700;2024-03-22T17:51:11;0.10;;;0.10;;
8502;SDS011;4289;48.664;12.700;2024-03-22T17:54:35;0.00;;;0.00;;
8502;SDS011;4289;48.664;12.700;2024-03-22T17:57:58;0.00;;;0.00;;
8502;SDS011;4289;48.664;12.700;2024-03-22T18:01:21;0.10;;;0.10;;
8502;SDS011;4289;48.664;12.700;2024-03-22T18:04:43;0.00;;;0.00;;
8502;SDS011;4289;48.664;12.700;2024-03-22T18:08:06;0.10;;;0.10;;
8502;SDS011;4289;48.664;12.700;2024-03-22T18:11:30;0.00;;;0.00;;
8502;SDS011;4289;48.664;12.700;2024-03-22T18:14:51;0.07;;;0.07;;
8502;SDS011;4289;48.664;12.700;2024-03-22T18:18:13;0.00;;;0.00;;
8502;SDS011;4289;48.664;12.700;2024-03-22T18:21:35;0.00;;;0.00;;
8502;SDS011;4289;48.664;12.700;2024-03-22T18:25:00;0.00;;;0.00;;
8502;SDS011;4289;48.664;12.700;2024-03-22T18:28:24;0.10;;;0.10;;
8502;SDS011;4289;48.664;12.700;2024-03-22T18:31:46;0.00;;;0.00;;
8502;SDS011;4289;48.664;12.700;2024-03-22T18:35:08;0.10;;;0.10;;
8502;SDS011;4289;48.664;12.700;2024-03-22T18:38:30;0.00;;;0.00;;
8502;SDS011;4289;48.664;12.700;2024-03-22T18:41:52;0.10;;;0.10;;
8502;SDS011;4289;48.664;12.700;2024-03-22T18:45:15;0.00;;;0.00;;
8502;SDS011;4289;48.664;12.700;2024-03-22T18:48:37;0.10;;;0.10;;
8502;SDS011;4289;48.664;12.700;2024-03-22T18:51:59;0.00;;;0.00;;
8502;SDS011;4289;48.664;12.700;2024-03-22T18:55:22;0.10;;;0.10;;
8502;SDS011;4289;48.664;12.700;2024-03-22T18:58:44;0.10;;;0.10;;
8502;SDS011;4289;48.664;12.700;2024-03-22T19:02:06;0.10;;;0.10;;
8502;SDS011;4289;48.664;12.700;2024-03-22T19:05:29;0.00;;;0.00;;
8502;SDS011;4289;48.664;12.700;2024-03-22T19:08:50;0.00;;;0.00;;
8502;SDS011;4289;48.664;12.700;2024-03-22T19:12:47;0.00;;;0.00;;
8502;SDS011;4289;48.664;12.700;2024-03-22T19:16:09;0.07;;;0.07;;
8502;SDS011;4289;48.664;12.700;2024-03-22T19:19:31;0.10;;;0.10;;
8502;SDS011;4289;48.664;12.700;2024-03-22T19:22:54;0.00;;;0.00;;
8502;SDS011;4289;48.664;12.700;2024-03-22T19:26:15;0.00;;;0.00;;
8502;SDS011;4289;48.664;12.700;2024-03-22T19:29:38;0.10;;;0.10;;
8502;SDS011;4289;48.664;12.700;2024-03-22T19:33:01;0.10;;;0.10;;
8502;SDS011;4289;48.664;12.700;2024-03-22T19:36:27;0.10;;;0.10;;
8502;SDS011;4289;48.664;12.700;2024-03-22T19:39:51;0.10;;;0.10;;
8502;SDS011;4289;48.664;12.700;2024-03-22T19:43:12;0.00;;;0.00;;
8502;SDS011;4289;48.664;12.700;2024-03-22T19:46:34;0.10;;;0.10;;
8502;SDS011;4289;48.664;12.700;2024-03-22T19:49:56;0.00;;;0.00;;
8502;SDS011;4289;48.664;12.700;2024-03-22T19:53:19;0.00;;;0.00;;
8502;SDS011;4289;48.664;12.700;2024-03-22T19:56:42;0.00;;;0.00;;
8502;SDS011;4289;48.664;12.700;2024-03-22T20:00:06;0.00;;;0.00;;
8502;SDS011;4289;48.664;12.700;2024-03-22T20:03:29;0.00;;;0.00;;
8502;SDS011;4289;48.664;12.700;2024-03-22T20:06:52;0.10;;;0.10;;
8502;SDS011;4289;48.664;12.700;2024-03-22T20:10:16;0.10;;;0.10;;
8502;SDS011;4289;48.664;12.700;2024-03-22T20:13:39;0.10;;;0.10;;
8502;SDS011;4289;48.664;12.700;2024-03-22T20:17:01;0.00;;;0.00;;
8502;SDS011;4289;48.664;12.700;2024-03-22T20:20:23;0.00;;;0.00;;
8502;SDS011;4289;48.664;12.700;2024-03-22T20:23:46;0.03;;;0.03;;
8502;SDS011;4289;48.664;12.700;2024-03-22T20:27:10;0.00;;;0.00;;
8502;SDS011;4289;48.664;12.700;2024-03-22T20:30:32;0.00;;;0.00;;
8502;SDS011;4289;48.664;12.700;2024-03-22T20:33:55;0.00;;;0.00;;
